Time;durP1;ratioP1;P1;durP2;ratioP2;P2;SDS_P1;SDS_P2;PMS_P1;PMS_P2;Temp;Humidity;BMP_temperature;BMP_pressure;BME280_temperature;BME280_humidity;BME280_pressure;Samples;Min_cycle;Max_cycle;Signal;HPM_P1;HPM_P2
2022/12/10 00:00:36;;;;;;;37.67;19.73;;;3.70;71.30;;;;;;5091882;28;20027;-68
2022/12/10 00:03:02;;;;;;;35.13;19.40;;;3.70;71.40;;;;;;5104681;28;20351;-68
2022/12/10 00:05:27;;;;;;;34.07;19.23;;;3.70;71.40;;;;;;5105165;28;20020;-68
2022/12/10 00:07:53;;;;;;;33.63;18.60;;;3.60;71.40;;;;;;5108025;28;20066;-68
2022/12/10 00:10:19;;;;;;;38.90;21.73;;;3.60;71.40;;;;;;5107187;28;20039;-69
2022/12/10 00:12:44;;;;;;;38.23;20.97;;;3.60;71.40;;;;;;5094974;28;20119;-69
2022/12/10 00:15:10;;;;;;;37.20;20.43;;;3.60;71.40;;;;;;5098946;28;20032;-68
2022/12/10 00:17:36;;;;;;;39.67;20.53;;;3.60;71.50;;;;;;5095606;28;20063;-68
2022/12/10 00:20:02;;;;;;;35.10;19.30;;;3.60;71.50;;;;;;5109140;28;20016;-68
2022/12/10 00:22:28;;;;;;;40.07;21.40;;;3.60;71.50;;;;;;5108850;28;20457;-68
2022/12/10 00:24:53;;;;;;;37.37;19.67;;;3.60;71.50;;;;;;5104596;28;20104;-68
2022/12/10 00:27:19;;;;;;;39.23;22.47;;;3.60;71.50;;;;;;5097825;28;20429;-68
2022/12/10 00:29:45;;;;;;;40.83;20.60;;;3.50;71.50;;;;;;5108648;28;20053;-69
2022/12/10 00:32:10;;;;;;;40.43;21.90;;;3.50;71.40;;;;;;5106527;28;20031;-67
2022/12/10 00:34:36;;;;;;;38.83;20.80;;;3.50;71.50;;;;;;5109719;28;20026;-67
2022/12/10 00:37:02;;;;;;;38.90;19.73;;;3.50;71.50;;;;;;5108904;27;20417;-67
2022/12/10 00:39:28;;;;;;;36.77;19.70;;;3.50;71.50;;;;;;5108576;28;20027;-67
2022/12/10 00:41:54;;;;;;;41.27;20.57;;;3.50;71.80;;;;;;5097352;28;20425;-67
2022/12/10 00:44:20;;;;;;;38.23;18.90;;;3.50;71.50;;;;;;5105264;28;20098;-67
2022/12/10 00:46:46;;;;;;;39.17;21.40;;;3.50;71.50;;;;;;5101914;28;20060;-67
2022/12/10 00:49:11;;;;;;;36.83;19.97;;;3.50;71.50;;;;;;5108129;28;20352;-67
2022/12/10 00:51:37;;;;;;;35.33;19.77;;;3.50;71.50;;;;;;5100742;28;20381;-68
2022/12/10 00:54:03;;;;;;;36.60;19.40;;;3.50;71.60;;;;;;5101811;28;20027;-67
2022/12/10 00:56:32;;;;;;;35.83;19.13;;;3.40;71.50;;;;;;5100732;28;20031;-67
2022/12/10 00:58:58;;;;;;;35.83;19.70;;;3.50;71.60;;;;;;5101321;28;20028;-67
2022/12/10 01:01:31;;;;;;;37.20;20.60;;;3.40;71.60;;;;;;5103864;27;20456;-67
2022/12/10 01:04:03;;;;;;;36.93;19.00;;;3.40;71.60;;;;;;5106011;27;20043;-67
2022/12/10 01:06:32;;;;;;;38.00;21.20;;;3.40;71.70;;;;;;5102342;28;20441;-67
2022/12/10 01:09:01;;;;;;;35.47;19.10;;;3.40;71.70;;;;;;5109256;28;20081;-67
2022/12/10 01:11:32;;;;;;;37.27;19.70;;;3.40;71.70;;;;;;5101584;28;20024;-67
2022/12/10 01:13:58;;;;;;;42.30;19.55;;;3.40;71.60;;;;;;5108622;28;20064;-67
2022/12/10 01:16:25;;;;;;;37.67;21.23;;;3.40;71.60;;;;;;5104726;27;20035;-67
2022/12/10 01:18:55;;;;;;;38.93;20.57;;;3.40;71.60;;;;;;5107719;27;20410;-67
2022/12/10 01:21:22;;;;;;;34.97;19.10;;;3.40;71.60;;;;;;5099650;28;20032;-68
2022/12/10 01:23:50;;;;;;;38.13;21.27;;;3.40;71.60;;;;;;5113848;28;20035;-68
2022/12/10 01:26:20;;;;;;;33.67;17.97;;;3.30;71.60;;;;;;5109252;28;20034;-67
2022/12/10 01:28:46;;;;;;;39.70;20.80;;;3.40;71.70;;;;;;5103308;28;20039;-67
2022/12/10 01:31:16;;;;;;;36.43;19.77;;;3.30;71.70;;;;;;5109401;28;20028;-68
2022/12/10 01:33:42;;;;;;;41.63;21.17;;;3.30;71.70;;;;;;5097543;28;20028;-68
2022/12/10 01:36:11;;;;;;;37.67;19.57;;;3.30;71.70;;;;;;5104608;28;20075;-68
2022/12/10 01:38:37;;;;;;;37.63;19.47;;;3.30;71.70;;;;;;5101721;28;20019;-68
2022/12/10 01:41:05;;;;;;;38.63;19.77;;;3.30;71.70;;;;;;5114345;28;20059;-67
2022/12/10 01:44:01;;;;;;;36.83;19.43;;;3.30;71.70;;;;;;5118244;27;20035;-67
2022/12/10 01:46:33;;;;;;;35.03;19.60;;;3.30;71.60;;;;;;5105816;28;20110;-67
2022/12/10 01:49:02;;;;;;;37.53;21.07;;;3.20;71.60;;;;;;5119084;27;20079;-67
2022/12/10 01:51:31;;;;;;;38.57;20.23;;;3.20;71.60;;;;;;5104608;28;20059;-67
2022/12/10 01:53:57;;;;;;;36.17;20.40;;;3.20;71.60;;;;;;5108114;28;20068;-67
2022/12/10 01:56:24;;;;;;;37.73;20.53;;;3.20;71.60;;;;;;5093148;28;20023;-67
2022/12/10 01:58:55;;;;;;;39.63;19.67;;;3.20;71.60;;;;;;5097679;28;20437;-67
2022/12/10 02:01:33;;;;;;;36.35;20.15;;;3.20;71.60;;;;;;5106908;28;20070;-67
2022/12/10 02:04:11;;;;;;;32.37;17.53;;;3.20;71.60;;;;;;5105691;28;20467;-67
2022/12/10 02:06:59;;;;;;;38.13;19.80;;;3.20;71.60;;;;;;5106625;28;20401;-67
2022/12/10 02:09:48;;;;;;;36.07;20.47;;;3.20;71.70;;;;;;5099716;28;20360;-67
2022/12/10 02:12:21;;;;;;;36.50;19.97;;;3.20;71.60;;;;;;5104203;28;20027;-67
2022/12/10 02:15:14;;;;;;;35.87;20.13;;;3.10;71.60;;;;;;5111135;28;20028;-67
2022/12/10 02:17:45;;;;;;;35.17;18.03;;;3.20;71.70;;;;;;5102738;28;20456;-67
2022/12/10 02:20:24;;;;;;;36.17;19.48;;;3.20;71.70;;;;;;5099972;28;20024;-67
2022/12/10 02:22:57;;;;;;;32.90;17.73;;;3.20;71.70;;;;;;5100201;28;20066;-67
2022/12/10 02:25:41;;;;;;;36.37;19.67;;;3.10;71.60;;;;;;5102376;28;20063;-67
2022/12/10 02:28:31;;;;;;;33.73;18.30;;;3.10;71.60;;;;;;5095999;28;20101;-67
2022/12/10 02:30:59;;;;;;;35.13;18.00;;;3.10;71.60;;;;;;5110736;28;20418;-67
2022/12/10 02:33:27;;;;;;;36.77;19.93;;;3.10;71.70;;;;;;5082083;28;20070;-67
2022/12/10 02:35:55;;;;;;;37.10;19.73;;;3.10;71.70;;;;;;5106108;28;20076;-67
2022/12/10 02:38:30;;;;;;;36.67;19.43;;;3.10;71.70;;;;;;5099637;28;20084;-67
2022/12/10 02:41:10;;;;;;;34.83;19.70;;;3.10;71.80;;;;;;5093441;28;20028;-67
2022/12/10 02:43:36;;;;;;;35.23;18.63;;;3.10;71.80;;;;;;5112998;27;20019;-67
2022/12/10 02:46:04;;;;;;;37.63;19.27;;;3.10;71.80;;;;;;5106956;27;20016;-67
2022/12/10 02:48:32;;;;;;;36.50;18.17;;;3.10;71.80;;;;;;5097186;28;20460;-67
2022/12/10 02:50:58;;;;;;;35.10;19.93;;;3.10;71.80;;;;;;5101257;28;20304;-67
2022/12/10 02:53:23;;;;;;;37.37;19.97;;;3.10;71.90;;;;;;5104518;28;20036;-67
2022/12/10 02:56:11;;;;;;;36.33;20.03;;;3.10;72.30;;;;;;5111382;28;20034;-67
2022/12/10 02:59:05;;;;;;;37.53;18.43;;;3.00;71.70;;;;;;5109919;28;20023;-67
2022/12/10 03:01:58;;;;;;;38.07;19.03;;;3.00;71.90;;;;;;5095940;28;20032;-67
2022/12/10 03:04:31;;;;;;;34.43;19.23;;;3.00;71.80;;;;;;5112291;28;20031;-67
2022/12/10 03:07:03;;;;;;;33.77;18.40;;;3.00;71.90;;;;;;5097277;28;20035;-67
2022/12/10 03:09:45;;;;;;;38.57;20.47;;;3.00;71.90;;;;;;5112474;28;20032;-67
2022/12/10 03:12:31;;;;;;;35.10;18.17;;;3.00;71.90;;;;;;5099994;28;20478;-67
2022/12/10 03:15:04;;;;;;;39.30;20.90;;;3.00;71.90;;;;;;5107771;28;20028;-67
2022/12/10 03:17:32;;;;;;;38.23;20.23;;;3.00;71.90;;;;;;5101700;28;20040;-67
2022/12/10 03:20:00;;;;;;;35.20;19.30;;;2.90;71.90;;;;;;5090946;28;20026;-67
2022/12/10 03:22:28;;;;;;;38.97;22.67;;;3.00;71.90;;;;;;5101628;28;20028;-67
2022/12/10 03:24:54;;;;;;;37.73;20.90;;;2.90;71.90;;;;;;5110286;28;20118;-67
2022/12/10 03:27:23;;;;;;;39.13;20.43;;;2.90;71.90;;;;;;5093224;28;20442;-67
2022/12/10 03:29:51;;;;;;;39.17;20.33;;;2.90;71.90;;;;;;5109240;28;20116;-67
2022/12/10 03:32:21;;;;;;;38.23;20.60;;;2.90;71.90;;;;;;5108314;28;20054;-67
2022/12/10 03:34:48;;;;;;;37.80;20.13;;;2.90;71.90;;;;;;5105164;28;20462;-67
2022/12/10 03:37:14;;;;;;;42.77;20.90;;;3.00;72.00;;;;;;5097566;28;20040;-67
2022/12/10 03:39:42;;;;;;;37.87;19.87;;;2.90;71.90;;;;;;5110807;28;20031;-67
2022/12/10 03:42:08;;;;;;;39.50;19.60;;;2.90;71.90;;;;;;5103516;28;20023;-67
2022/12/10 03:44:37;;;;;;;37.33;20.37;;;2.90;72.00;;;;;;5102374;28;20039;-67
2022/12/10 03:47:06;;;;;;;36.17;20.80;;;2.90;72.00;;;;;;5100919;28;20419;-67
2022/12/10 03:49:31;;;;;;;36.77;21.07;;;2.90;72.00;;;;;;5096181;28;20028;-67
2022/12/10 03:51:57;;;;;;;39.30;19.70;;;2.90;72.00;;;;;;5107763;27;20032;-67
2022/12/10 03:54:23;;;;;;;36.93;19.63;;;2.80;72.00;;;;;;5104313;27;20107;-67
2022/12/10 03:56:49;;;;;;;40.97;20.67;;;2.90;72.10;;;;;;5106582;28;20039;-67
2022/12/10 03:59:15;;;;;;;39.40;19.93;;;2.90;72.10;;;;;;5097617;28;20111;-68
2022/12/10 04:01:41;;;;;;;41.33;20.70;;;2.90;72.10;;;;;;5105637;28;20027;-67
2022/12/10 04:04:07;;;;;;;39.83;20.43;;;2.80;72.20;;;;;;5104240;28;20367;-67
2022/12/10 04:06:33;;;;;;;39.30;20.67;;;2.80;72.20;;;;;;5105106;28;20024;-67
2022/12/10 04:08:59;;;;;;;36.53;20.27;;;2.80;72.20;;;;;;5104136;28;20039;-67
2022/12/10 04:11:25;;;;;;;36.20;19.17;;;2.80;72.20;;;;;;5107566;28;20039;-67
2022/12/10 04:16:36;;;;;;;38.50;19.43;;;2.80;72.20;;;;;;5112996;28;20034;-68
2022/12/10 04:19:08;;;;;;;34.77;19.73;;;2.80;72.20;;;;;;5088196;28;20344;-67
2022/12/10 04:27:16;;;;;;;33.63;18.33;;;2.70;72.30;;;;;;5117082;27;20149;-67
2022/12/10 04:29:42;;;;;;;36.77;19.83;;;2.70;72.30;;;;;;5097202;28;20057;-67
2022/12/10 04:32:08;;;;;;;39.30;20.80;;;2.70;72.30;;;;;;5102717;28;20411;-67
2022/12/10 04:34:33;;;;;;;38.13;22.00;;;2.70;72.40;;;;;;5099899;28;20040;-67
2022/12/10 04:37:02;;;;;;;39.13;21.37;;;2.70;72.40;;;;;;5105919;28;20110;-67
2022/12/10 04:39:28;;;;;;;43.70;21.97;;;2.80;72.50;;;;;;5110836;28;20044;-67
2022/12/10 04:41:53;;;;;;;40.27;22.37;;;2.80;72.50;;;;;;5111321;28;20160;-67
2022/12/10 04:44:19;;;;;;;45.13;23.23;;;2.80;72.60;;;;;;5112956;28;20035;-67
2022/12/10 04:46:46;;;;;;;47.47;23.13;;;2.80;72.60;;;;;;5109923;28;20028;-67
2022/12/10 04:49:12;;;;;;;45.03;23.67;;;2.80;72.60;;;;;;5113373;28;20114;-67
2022/12/10 04:51:39;;;;;;;46.33;23.37;;;2.70;72.70;;;;;;5115251;28;20432;-67
2022/12/10 04:54:05;;;;;;;44.07;22.40;;;2.70;72.80;;;;;;5120423;27;20123;-67
2022/12/10 04:56:31;;;;;;;48.17;23.60;;;2.70;72.80;;;;;;5116497;27;20476;-67
2022/12/10 04:58:58;;;;;;;50.40;23.73;;;2.70;72.80;;;;;;5116162;28;20030;-67
2022/12/10 05:01:24;;;;;;;48.00;23.17;;;2.70;72.90;;;;;;5111622;28;20031;-67
2022/12/10 05:03:50;;;;;;;46.07;22.83;;;2.70;72.80;;;;;;5116412;27;20020;-67
2022/12/10 05:06:18;;;;;;;47.60;24.23;;;2.70;72.80;;;;;;5130988;27;20424;-67
2022/12/10 05:08:45;;;;;;;53.90;26.60;;;2.70;72.90;;;;;;5114826;28;20024;-67
2022/12/10 05:11:13;;;;;;;47.83;24.03;;;2.70;72.80;;;;;;5116347;28;20057;-67
2022/12/10 05:13:39;;;;;;;51.00;23.53;;;2.70;72.90;;;;;;5114603;28;20367;-67
2022/12/10 05:16:09;;;;;;;50.80;24.47;;;2.70;73.00;;;;;;5116868;28;20060;-67
2022/12/10 05:18:36;;;;;;;51.03;26.20;;;2.70;73.00;;;;;;5114884;27;20043;-67
2022/12/10 05:21:05;;;;;;;47.77;24.23;;;2.70;73.00;;;;;;5119546;27;20092;-67
2022/12/10 05:23:31;;;;;;;50.87;25.13;;;2.70;73.00;;;;;;5094489;28;20039;-67
2022/12/10 05:25:59;;;;;;;52.90;27.47;;;2.70;73.00;;;;;;5116705;28;20073;-67
2022/12/10 05:28:25;;;;;;;51.13;25.40;;;2.70;73.00;;;;;;5115513;28;20019;-69
2022/12/10 05:30:51;;;;;;;49.43;24.07;;;2.70;73.10;;;;;;5106463;28;20333;-67
2022/12/10 05:33:17;;;;;;;49.87;24.37;;;2.70;73.10;;;;;;5113350;28;20054;-67
2022/12/10 05:35:43;;;;;;;46.93;24.07;;;2.70;73.20;;;;;;5110272;28;20027;-67
2022/12/10 05:38:10;;;;;;;49.30;24.33;;;2.60;73.30;;;;;;5106979;28;20031;-67
2022/12/10 05:40:36;;;;;;;50.40;24.37;;;2.70;73.40;;;;;;5104044;28;20093;-67
2022/12/10 05:43:02;;;;;;;50.90;24.77;;;2.60;73.30;;;;;;5106511;28;20050;-67
2022/12/10 05:45:28;;;;;;;52.90;25.57;;;2.60;73.30;;;;;;5105498;28;20024;-67
2022/12/10 05:47:54;;;;;;;51.63;24.17;;;2.70;73.40;;;;;;5105473;28;20031;-67
2022/12/10 05:50:19;;;;;;;52.63;24.03;;;2.60;73.30;;;;;;5106334;28;20024;-67
2022/12/10 05:52:45;;;;;;;52.57;26.70;;;2.60;73.40;;;;;;5091651;28;20096;-67
2022/12/10 05:55:11;;;;;;;55.70;26.87;;;2.60;73.40;;;;;;5108635;28;20024;-67
2022/12/10 05:57:37;;;;;;;48.30;25.50;;;2.60;73.40;;;;;;5089531;28;20076;-67
2022/12/10 06:00:05;;;;;;;51.90;24.40;;;2.60;73.70;;;;;;5110301;28;20034;-67
2022/12/10 06:02:38;;;;;;;58.10;25.90;;;2.60;73.50;;;;;;5096441;28;20043;-67
2022/12/10 06:05:03;;;;;;;49.87;23.60;;;2.60;73.60;;;;;;5110951;27;20023;-67
2022/12/10 06:07:30;;;;;;;54.07;24.23;;;2.60;74.20;;;;;;5115072;27;20375;-67
2022/12/10 06:09:55;;;;;;;53.37;25.93;;;2.60;73.60;;;;;;5095982;28;20104;-67
2022/12/10 06:12:21;;;;;;;54.37;24.80;;;2.50;73.60;;;;;;5112647;28;20476;-67
2022/12/10 06:14:47;;;;;;;51.57;25.63;;;2.50;73.70;;;;;;5109500;28;20124;-67
2022/12/10 06:17:13;;;;;;;48.63;25.03;;;2.50;73.80;;;;;;5095376;28;20052;-67
2022/12/10 06:19:38;;;;;;;48.80;24.03;;;2.50;73.80;;;;;;5104732;28;20130;-68
2022/12/10 06:22:04;;;;;;;55.70;24.53;;;2.50;73.90;;;;;;5094784;28;20043;-68
2022/12/10 06:24:30;;;;;;;52.97;22.90;;;2.40;73.90;;;;;;5096990;28;20020;-68
2022/12/10 06:26:56;;;;;;;50.83;24.27;;;2.40;74.00;;;;;;5099381;28;20024;-69
2022/12/10 06:29:22;;;;;;;50.57;25.37;;;2.40;74.00;;;;;;5094299;28;20043;-68
2022/12/10 06:31:48;;;;;;;50.70;24.87;;;2.40;74.00;;;;;;5105390;28;20020;-69
2022/12/10 06:34:13;;;;;;;49.50;24.27;;;2.40;74.00;;;;;;5106383;28;20035;-69
2022/12/10 06:36:39;;;;;;;51.27;23.07;;;2.40;74.10;;;;;;5107489;28;20027;-69
2022/12/10 06:39:05;;;;;;;50.93;24.10;;;2.40;74.00;;;;;;5109619;28;20059;-68
2022/12/10 06:41:30;;;;;;;54.73;26.73;;;2.40;74.00;;;;;;5092438;28;20062;-67
2022/12/10 06:43:58;;;;;;;50.60;24.33;;;2.40;74.10;;;;;;5088939;28;20352;-69
2022/12/10 06:46:24;;;;;;;50.63;24.83;;;2.40;74.10;;;;;;5109833;28;20036;-68
2022/12/10 06:48:50;;;;;;;42.67;22.03;;;2.40;74.20;;;;;;5094126;28;20035;-68
2022/12/10 06:51:17;;;;;;;51.10;22.97;;;2.40;74.20;;;;;;5110906;27;20035;-68
2022/12/10 06:53:43;;;;;;;52.83;25.07;;;2.40;74.20;;;;;;5094589;27;20028;-68
2022/12/10 06:56:17;;;;;;;50.03;24.10;;;2.40;74.30;;;;;;5100433;28;20068;-68
2022/12/10 06:58:44;;;;;;;52.60;23.67;;;2.30;74.30;;;;;;5095933;28;20463;-68
2022/12/10 07:01:13;;;;;;;50.80;22.50;;;2.30;74.30;;;;;;5099820;28;20024;-69
2022/12/10 07:03:39;;;;;;;49.87;23.80;;;2.30;74.40;;;;;;5109242;27;20034;-68
2022/12/10 07:06:06;;;;;;;53.23;27.10;;;2.30;74.40;;;;;;5110821;27;20070;-68
2022/12/10 07:08:34;;;;;;;48.43;23.33;;;2.30;74.50;;;;;;5099517;28;20093;-68
2022/12/10 07:11:04;;;;;;;51.13;23.27;;;2.30;74.50;;;;;;5098840;28;20028;-68
2022/12/10 07:13:30;;;;;;;51.47;26.40;;;2.30;74.50;;;;;;5109403;27;20033;-68
2022/12/10 07:15:56;;;;;;;51.80;24.53;;;2.30;74.50;;;;;;5095294;28;20100;-68
2022/12/10 07:18:22;;;;;;;51.90;24.80;;;2.30;74.50;;;;;;5100570;28;20399;-67
2022/12/10 07:20:47;;;;;;;55.97;26.57;;;2.30;74.50;;;;;;5104265;28;20026;-67
2022/12/10 07:23:13;;;;;;;59.27;26.13;;;2.30;74.50;;;;;;5103245;28;20463;-67
2022/12/10 07:25:39;;;;;;;47.93;22.90;;;2.30;74.50;;;;;;5105274;28;20028;-67
2022/12/10 07:28:05;;;;;;;53.07;22.37;;;2.30;74.60;;;;;;5102669;28;20498;-65
2022/12/10 07:30:31;;;;;;;53.63;24.77;;;2.30;74.60;;;;;;5110886;28;20084;-66
2022/12/10 07:32:57;;;;;;;51.97;24.93;;;2.30;74.60;;;;;;5106695;28;20059;-66
2022/12/10 07:35:23;;;;;;;52.17;23.73;;;2.30;74.60;;;;;;5093331;28;20060;-67
2022/12/10 07:37:48;;;;;;;46.63;23.50;;;2.40;74.60;;;;;;5101719;28;20442;-68
2022/12/10 07:40:14;;;;;;;49.13;22.47;;;2.40;74.60;;;;;;5113394;28;20039;-68
2022/12/10 07:42:40;;;;;;;49.23;22.97;;;2.30;74.50;;;;;;5109234;28;20019;-68
2022/12/10 07:45:06;;;;;;;55.40;23.80;;;2.30;74.50;;;;;;5120690;28;20085;-68
2022/12/10 07:47:35;;;;;;;46.90;22.47;;;2.30;74.50;;;;;;5100051;28;20035;-68
2022/12/10 07:50:01;;;;;;;52.87;25.10;;;2.40;74.50;;;;;;5107626;28;20020;-68
2022/12/10 07:52:27;;;;;;;50.57;24.03;;;2.30;74.40;;;;;;5113023;28;20067;-68
2022/12/10 07:54:53;;;;;;;48.33;23.10;;;2.30;74.40;;;;;;5112303;28;20023;-68
2022/12/10 07:57:18;;;;;;;56.00;23.57;;;2.30;74.50;;;;;;5108070;28;20453;-68
2022/12/10 07:59:44;;;;;;;49.37;23.20;;;2.30;74.50;;;;;;5111366;28;20438;-68
2022/12/10 08:02:10;;;;;;;49.13;22.40;;;2.30;74.50;;;;;;5113245;28;20015;-68
2022/12/10 08:04:37;;;;;;;46.57;22.13;;;2.30;74.50;;;;;;5108595;28;20028;-68
2022/12/10 08:07:03;;;;;;;49.77;24.13;;;2.30;74.50;;;;;;5102997;28;20027;-68
2022/12/10 08:09:28;;;;;;;47.57;22.10;;;2.30;74.50;;;;;;5107204;28;20039;-68
2022/12/10 08:11:54;;;;;;;47.37;21.30;;;2.30;74.60;;;;;;5110761;28;20133;-69
2022/12/10 08:14:20;;;;;;;48.40;22.33;;;2.30;74.60;;;;;;5111365;28;20143;-69
2022/12/10 08:16:45;;;;;;;50.67;22.30;;;2.30;74.60;;;;;;5104594;28;20063;-69
2022/12/10 08:19:11;;;;;;;54.17;23.10;;;2.30;74.60;;;;;;5111522;28;20085;-69
2022/12/10 08:21:37;;;;;;;47.17;21.17;;;2.30;74.60;;;;;;5097695;28;20020;-68
2022/12/10 08:24:03;;;;;;;50.73;22.43;;;2.30;74.70;;;;;;5095952;28;20458;-68
2022/12/10 08:26:31;;;;;;;44.63;21.43;;;2.30;74.70;;;;;;5098155;28;20023;-68
2022/12/10 08:28:58;;;;;;;47.60;20.90;;;2.30;74.80;;;;;;5098581;28;20035;-68
2022/12/10 08:31:25;;;;;;;46.30;22.33;;;2.30;74.70;;;;;;5107209;28;20020;-68
2022/12/10 08:33:51;;;;;;;48.93;23.10;;;2.40;74.80;;;;;;5109487;28;20440;-69
2022/12/10 08:36:17;;;;;;;48.03;21.10;;;2.40;74.80;;;;;;5111067;28;20028;-68
2022/12/10 08:38:44;;;;;;;50.33;23.30;;;2.40;74.80;;;;;;5111527;28;20024;-68
2022/12/10 08:41:12;;;;;;;43.63;20.83;;;2.40;74.90;;;;;;5101717;28;20043;-68
2022/12/10 08:43:38;;;;;;;41.17;20.23;;;2.40;74.90;;;;;;5105085;27;20304;-67
2022/12/10 08:46:04;;;;;;;42.50;21.43;;;2.40;75.00;;;;;;5100094;28;20118;-68
2022/12/10 08:48:30;;;;;;;48.77;22.17;;;2.50;75.00;;;;;;5107695;27;20024;-68
2022/12/10 08:50:56;;;;;;;47.87;22.90;;;2.50;75.70;;;;;;5105352;28;20036;-68
2022/12/10 08:53:22;;;;;;;47.07;20.90;;;2.50;75.10;;;;;;5095606;28;20032;-66
2022/12/10 08:55:52;;;;;;;46.10;20.07;;;2.50;75.00;;;;;;5098204;28;20027;-67
2022/12/10 08:58:18;;;;;;;45.77;20.20;;;2.50;75.00;;;;;;5114056;28;20040;-67
2022/12/10 09:00:44;;;;;;;43.50;20.97;;;2.60;75.10;;;;;;5106124;28;20440;-67
2022/12/10 09:03:09;;;;;;;41.93;18.77;;;2.60;75.10;;;;;;5096653;28;20028;-67
2022/12/10 09:05:35;;;;;;;43.37;19.57;;;2.60;75.10;;;;;;5110483;27;20085;-67
2022/12/10 09:08:01;;;;;;;44.10;20.60;;;2.50;75.10;;;;;;5104169;28;20028;-66
2022/12/10 09:10:27;;;;;;;45.83;19.93;;;2.60;75.20;;;;;;5105947;28;20027;-66
2022/12/10 09:12:52;;;;;;;43.87;19.27;;;2.60;75.20;;;;;;5097876;28;20455;-66
2022/12/10 09:15:18;;;;;;;40.50;19.70;;;2.50;75.30;;;;;;5103811;28;20032;-66
2022/12/10 09:17:44;;;;;;;42.17;20.27;;;2.60;75.30;;;;;;5104753;27;20059;-67
2022/12/10 09:20:10;;;;;;;46.83;20.53;;;2.60;75.30;;;;;;5123893;27;20031;-67
2022/12/10 09:22:36;;;;;;;41.40;20.07;;;2.60;75.30;;;;;;5103789;28;20019;-66
2022/12/10 09:25:09;;;;;;;40.27;19.63;;;2.60;75.30;;;;;;5105570;28;20036;-67
2022/12/10 09:27:36;;;;;;;40.23;19.90;;;2.70;75.30;;;;;;5096708;28;20374;-67
2022/12/10 09:30:03;;;;;;;46.00;20.63;;;2.70;75.30;;;;;;5096199;28;20032;-67
2022/12/10 09:32:29;;;;;;;50.27;21.90;;;2.70;75.40;;;;;;5107751;28;20027;-67
2022/12/10 09:34:54;;;;;;;46.37;20.63;;;2.70;75.40;;;;;;5097203;28;20520;-67
2022/12/10 09:37:20;;;;;;;43.97;20.60;;;2.70;75.40;;;;;;5121210;27;20031;-67
2022/12/10 09:39:46;;;;;;;44.73;20.30;;;2.70;75.30;;;;;;5099732;28;20395;-66
2022/12/10 09:42:34;;;;;;;43.47;19.60;;;2.70;75.30;;;;;;5096462;28;20099;-68
2022/12/10 09:45:38;;;;;;;43.63;21.10;;;2.70;75.40;;;;;;5097155;28;20024;-68
2022/12/10 09:48:25;;;;;;;40.07;18.23;;;2.70;75.30;;;;;;5104829;28;20030;-68
2022/12/10 09:50:59;;;;;;;45.87;19.63;;;2.70;75.30;;;;;;5115219;27;20031;-68
2022/12/10 09:53:28;;;;;;;44.07;19.60;;;2.70;75.40;;;;;;5122765;27;20424;-68
2022/12/10 09:55:54;;;;;;;42.40;21.93;;;2.70;75.40;;;;;;5106917;28;20036;-68
2022/12/10 09:58:22;;;;;;;46.57;19.97;;;2.70;75.40;;;;;;5098366;28;20037;-68
2022/12/10 10:00:57;;;;;;;41.57;18.90;;;2.70;75.50;;;;;;5095731;28;20031;-68
2022/12/10 10:03:23;;;;;;;46.43;21.70;;;2.80;75.60;;;;;;5101017;28;20042;-68
2022/12/10 10:05:51;;;;;;;42.70;19.93;;;2.80;75.60;;;;;;5100792;28;20016;-68
2022/12/10 10:08:20;;;;;;;46.40;22.57;;;2.80;75.60;;;;;;5116558;27;20035;-68
2022/12/10 10:10:45;;;;;;;45.63;19.73;;;2.80;75.60;;;;;;5095698;28;20055;-68
2022/12/10 10:13:33;;;;;;;45.77;22.23;;;2.80;75.60;;;;;;5105828;28;20122;-68
2022/12/10 10:16:23;;;;;;;47.40;21.80;;;2.80;75.60;;;;;;5099711;28;20351;-67
2022/12/10 10:18:55;;;;;;;46.50;22.27;;;2.90;75.70;;;;;;5100988;28;20363;-66
2022/12/10 10:21:35;;;;;;;46.30;21.40;;;2.80;75.70;;;;;;5112152;28;20031;-67
2022/12/10 10:24:02;;;;;;;46.10;20.97;;;2.90;75.70;;;;;;5102752;28;20044;-67
2022/12/10 10:26:29;;;;;;;42.53;20.23;;;2.90;75.60;;;;;;5098326;28;20031;-67
2022/12/10 10:29:01;;;;;;;44.97;20.37;;;2.90;75.60;;;;;;5111343;27;20072;-69
2022/12/10 10:31:30;;;;;;;43.43;19.93;;;3.00;75.70;;;;;;5125432;27;20109;-68
2022/12/10 10:33:59;;;;;;;55.57;22.83;;;3.00;75.70;;;;;;5095261;27;20440;-68
2022/12/10 10:36:37;;;;;;;47.27;22.90;;;3.00;75.70;;;;;;5101372;28;20054;-68
2022/12/10 10:39:30;;;;;;;45.83;21.30;;;3.00;75.80;;;;;;5102032;28;20031;-68
2022/12/10 10:41:58;;;;;;;42.60;20.03;;;3.00;75.70;;;;;;5098835;28;20075;-68
2022/12/10 10:44:28;;;;;;;48.20;21.87;;;3.00;75.70;;;;;;5103350;28;20486;-68
2022/12/10 10:46:55;;;;;;;43.17;20.03;;;3.00;75.70;;;;;;5112758;27;20035;-68
2022/12/10 10:49:28;;;;;;;55.80;23.13;;;3.00;75.70;;;;;;5113403;28;20104;-68
2022/12/10 10:51:59;;;;;;;50.33;21.50;;;3.00;75.80;;;;;;5108904;28;20088;-68
2022/12/10 10:54:36;;;;;;;50.28;24.10;;;3.00;75.80;;;;;;5107342;28;20038;-69
2022/12/10 10:57:11;;;;;;;43.53;21.17;;;3.10;75.90;;;;;;5097413;28;20030;-69
2022/12/10 10:59:37;;;;;;;44.67;20.67;;;3.10;75.80;;;;;;5120912;27;20120;-69
2022/12/10 11:02:32;;;;;;;45.47;20.93;;;3.10;75.80;;;;;;5103719;28;20028;-69
2022/12/10 11:05:08;;;;;;;39.63;19.47;;;3.10;75.80;;;;;;5112850;28;20123;-69
2022/12/10 11:07:39;;;;;;;44.50;19.27;;;3.10;75.80;;;;;;5115389;27;20024;-69
2022/12/10 11:10:18;;;;;;;43.78;20.45;;;3.10;75.80;;;;;;5099144;28;20028;-69
2022/12/10 11:13:00;;;;;;;43.30;19.57;;;3.10;75.80;;;;;;5099141;28;20023;-69
2022/12/10 11:15:29;;;;;;;;;;;3.20;75.80;;;;;;5112676;28;20454;-69
2022/12/10 11:17:56;;;;;;;36.60;16.67;;;3.20;75.80;;;;;;5106711;28;19916;-69
2022/12/10 11:20:29;;;;;;;41.17;18.03;;;3.20;75.80;;;;;;5100744;28;20498;-69
2022/12/10 11:23:01;;;;;;;43.30;18.70;;;3.20;75.70;;;;;;5100580;28;20091;-68
2022/12/10 11:26:02;;;;;;;41.03;18.93;;;3.20;75.80;;;;;;5103912;28;20051;-69
2022/12/10 11:28:50;;;;;;;41.27;18.20;;;3.20;75.80;;;;;;5101196;28;20127;-69
2022/12/10 11:31:46;;;;;;;40.00;17.73;;;3.20;75.80;;;;;;5099378;28;21440;-69
2022/12/10 11:34:40;;;;;;;43.47;19.10;;;3.20;75.80;;;;;;5094394;28;20028;-68
2022/12/10 11:37:32;;;;;;;42.83;18.67;;;3.20;75.80;;;;;;5094638;28;20020;-69
2022/12/10 11:40:28;;;;;;;38.40;17.90;;;3.20;75.80;;;;;;5093637;28;20039;-69
2022/12/10 11:43:15;;;;;;;41.33;19.37;;;3.30;75.80;;;;;;5094622;28;20470;-69
2022/12/10 11:46:02;;;;;;;38.17;16.60;;;3.30;75.90;;;;;;5108510;28;20048;-69
2022/12/10 11:48:34;;;;;;;38.03;17.33;;;3.30;75.80;;;;;;5089894;28;20031;-69
2022/12/10 11:51:05;;;;;;;40.42;17.83;;;3.20;75.80;;;;;;5106696;28;20039;-69
2022/12/10 11:53:40;;;;;;;37.13;17.75;;;3.20;76.00;;;;;;5109402;28;20092;-69
2022/12/10 11:56:26;;;;;;;45.90;19.70;;;3.20;76.10;;;;;;5093857;28;20108;-69
2022/12/10 11:58:55;;;;;;;43.37;18.77;;;3.20;76.00;;;;;;5099095;28;20031;-69
2022/12/10 12:01:45;;;;;;;41.20;19.17;;;3.20;75.90;;;;;;5099930;28;20031;-69
2022/12/10 12:04:18;;;;;;;41.50;19.20;;;3.20;76.00;;;;;;5106697;28;20325;-69
2022/12/10 12:07:07;;;;;;;39.40;18.10;;;3.20;76.10;;;;;;5105070;28;20090;-68
2022/12/10 12:09:39;;;;;;;42.20;19.67;;;3.20;76.10;;;;;;5104764;28;20036;-68
2022/12/10 12:12:31;;;;;;;40.53;17.93;;;3.20;76.10;;;;;;5102110;28;20031;-69
2022/12/10 12:15:03;;;;;;;38.23;18.70;;;3.30;76.10;;;;;;5107853;28;20043;-68
2022/12/10 12:17:39;;;;;;;47.67;20.52;;;3.30;76.10;;;;;;5102615;28;20052;-69
2022/12/10 12:20:30;;;;;;;43.70;20.17;;;3.30;76.00;;;;;;5105833;28;20032;-68
2022/12/10 12:23:09;;;;;;;39.80;17.90;;;3.30;76.00;;;;;;5107232;28;20340;-68
2022/12/10 12:25:39;;;;;;;40.60;18.63;;;3.30;76.00;;;;;;5110484;28;20427;-68
2022/12/10 12:28:38;;;;;;;42.13;18.00;;;3.30;76.00;;;;;;5099074;28;20102;-68
2022/12/10 12:31:16;;;;;;;42.40;18.30;;;3.40;76.10;;;;;;5100095;28;20081;-67
2022/12/10 12:33:45;;;;;;;44.87;19.13;;;3.30;76.00;;;;;;5106049;28;20457;-64
2022/12/10 12:36:22;;;;;;;47.67;20.77;;;3.30;76.10;;;;;;5111856;28;20016;-65
2022/12/10 12:39:24;;;;;;;39.33;18.57;;;3.30;76.10;;;;;;5106626;28;20034;-65
2022/12/10 12:42:12;;;;;;;43.63;20.23;;;3.30;76.70;;;;;;5124800;27;20084;-65
2022/12/10 12:44:45;;;;;;;43.30;19.53;;;3.30;76.10;;;;;;5115061;27;20111;-65
2022/12/10 12:47:14;;;;;;;44.97;19.33;;;3.30;76.10;;;;;;5117021;28;20137;-64
2022/12/10 12:49:41;;;;;;;47.57;21.87;;;3.30;76.10;;;;;;5117190;28;20024;-65
2022/12/10 12:52:24;;;;;;;48.10;22.33;;;3.40;76.20;;;;;;5110387;28;20039;-65
2022/12/10 12:54:50;;;;;;;42.90;18.70;;;3.40;76.20;;;;;;5116718;28;20356;-64
2022/12/10 12:57:38;;;;;;;46.70;20.10;;;3.40;76.20;;;;;;5115822;28;20031;-65
2022/12/10 13:00:18;;;;;;;43.17;19.57;;;3.40;76.10;;;;;;5109232;27;20028;-65
2022/12/10 13:03:06;;;;;;;43.80;19.37;;;3.40;76.10;;;;;;5120940;27;20077;-65